Time;durP1;ratioP1;P1;durP2;ratioP2;P2;SDS_P1;SDS_P2;PMS_P1;PMS_P2;Temp;Humidity;BMP_temperature;BMP_pressure;BME280_temperature;BME280_humidity;BME280_pressure;Samples;Min_cycle;Max_cycle;Signal;HPM_P1;HPM_P2
2024/02/07 00:01:48;;;;;;;;;;;;;;;17.00;44.01;100417.53;5026301;28;1909;-48
2024/02/07 00:04:14;;;;;;;;;;;;;;;17.34;43.60;100432.41;5036534;28;1103;-46
2024/02/07 00:06:40;;;;;;;;;;;;;;;17.65;42.72;100423.88;5036638;28;1084;-45
2024/02/07 00:09:06;;;;;;;;;;;;;;;16.96;44.03;100424.69;5034146;28;1011;-48
2024/02/07 00:11:31;;;;;;;;;;;;;;;16.73;43.80;100428.91;5016810;28;1152;-46
2024/02/07 00:13:57;;;;;;;;;;;;;;;17.74;42.62;100425.72;5031685;28;1131;-45
2024/02/07 00:16:22;;;;;;;;;;;;;;;17.73;42.40;100429.56;5027770;28;1123;-47
2024/02/07 00:18:48;;;;;;;;;;;;;;;17.23;43.58;100421.47;5029941;28;1540;-47
2024/02/07 00:21:14;;;;;;;;;;;;;;;19.01;40.04;100426.41;5020933;28;2616;-46
2024/02/07 00:23:39;;;;;;;;;;;;;;;17.57;42.56;100434.41;5018593;28;1043;-48
2024/02/07 00:26:05;;;;;;;;;;;;;;;17.14;43.36;100438.84;5033151;28;1103;-47
2024/02/07 00:28:30;;;;;;;;;;;;;;;16.91;43.48;100435.69;5030857;28;1052;-46
2024/02/07 00:30:56;;;;;;;;;;;;;;;17.97;41.75;100433.50;5036144;28;1115;-47
2024/02/07 00:33:21;;;;;;;;;;;;;;;17.13;43.60;100438.03;5023107;28;1176;-47
2024/02/07 00:35:47;;;;;;;;;;;;;;;16.86;44.03;100446.72;5026933;28;1098;-49
2024/02/07 00:38:13;;;;;;;;;;;;;;;17.13;43.81;100442.72;5017826;28;1012;-48
2024/02/07 00:40:39;;;;;;;;;;;;;;;18.01;41.71;100446.38;5035647;28;1993;-49
2024/02/07 00:43:04;;;;;;;;;;;;;;;17.06;43.63;100446.59;5032929;28;1185;-46
2024/02/07 00:45:30;;;;;;;;;;;;;;;16.72;44.10;100435.53;5025247;28;1155;-49
2024/02/07 00:47:56;;;;;;;;;;;;;;;18.33;41.00;100439.44;5020309;28;1023;-49
2024/02/07 00:50:21;;;;;;;;;;;;;;;17.21;43.20;100445.69;5021482;28;1171;-46
2024/02/07 00:52:47;;;;;;;;;;;;;;;16.87;43.87;100440.09;5016179;28;2682;-45
2024/02/07 00:55:12;;;;;;;;;;;;;;;18.20;41.20;100427.19;5016283;28;1170;-49
2024/02/07 00:57:38;;;;;;;;;;;;;;;17.20;43.40;100432.22;5021585;28;1099;-50
2024/02/07 01:00:05;;;;;;;;;;;;;;;16.97;43.72;100434.59;5039742;28;1055;-43
2024/02/07 01:02:30;;;;;;;;;;;;;;;17.74;42.27;100433.97;5033381;28;1905;-46
2024/02/07 01:04:56;;;;;;;;;;;;;;;17.00;43.60;100422.19;5019967;28;1056;-48
2024/02/07 01:07:22;;;;;;;;;;;;;;;18.62;40.28;100422.81;5028563;28;1000;-48
2024/02/07 01:09:47;;;;;;;;;;;;;;;17.66;42.12;100411.78;5038926;28;1122;-48
2024/02/07 01:12:13;;;;;;;;;;;;;;;17.18;43.15;100417.94;5039694;28;1031;-47
2024/02/07 01:14:39;;;;;;;;;;;;;;;16.97;43.47;100428.25;5027523;28;1135;-46
2024/02/07 01:17:04;;;;;;;;;;;;;;;17.09;43.59;100418.53;5030864;28;1116;-46
2024/02/07 01:19:30;;;;;;;;;;;;;;;17.99;41.59;100414.75;5026423;28;1110;-45
2024/02/07 01:21:56;;;;;;;;;;;;;;;17.19;43.01;100416.84;5030169;28;2990;-44
2024/02/07 01:24:21;;;;;;;;;;;;;;;16.85;43.72;100414.84;5035374;28;1136;-46
2024/02/07 01:26:47;;;;;;;;;;;;;;;17.00;43.86;100414.78;5034611;28;1080;-47
2024/02/07 01:29:13;;;;;;;;;;;;;;;18.02;41.33;100417.75;5038901;28;1039;-44
2024/02/07 01:31:38;;;;;;;;;;;;;;;17.08;43.32;100411.44;5030497;28;1164;-44
2024/02/07 01:34:04;;;;;;;;;;;;;;;16.81;43.93;100413.78;5032729;28;1225;-46
2024/02/07 01:36:30;;;;;;;;;;;;;;;17.60;42.40;100414.56;5028197;28;1102;-47
2024/02/07 01:38:55;;;;;;;;;;;;;;;17.87;41.60;100410.47;5027008;28;1201;-48
2024/02/07 01:41:28;;;;;;;;;;;;;;;17.18;43.06;100404.19;5030433;28;1897;-44
2024/02/07 01:43:53;;;;;;;;;;;;;;;16.76;43.70;100406.41;5036351;28;1135;-48
2024/02/07 01:46:19;;;;;;;;;;;;;;;18.04;41.56;100407.28;5029121;28;1135;-46
2024/02/07 01:48:45;;;;;;;;;;;;;;;17.10;43.16;100406.47;5031796;28;1134;-46
2024/02/07 01:51:11;;;;;;;;;;;;;;;16.91;43.77;100402.75;5020031;28;2582;-44
2024/02/07 01:53:38;;;;;;;;;;;;;;;18.19;40.84;100397.19;5035877;28;1107;-46
2024/02/07 01:56:04;;;;;;;;;;;;;;;17.21;43.14;100398.16;5037474;28;1090;-48
2024/02/07 01:58:30;;;;;;;;;;;;;;;17.33;42.99;100403.28;5025956;28;1129;-46
2024/02/07 02:00:57;;;;;;;;;;;;;;;17.99;41.25;100412.81;5035243;28;1906;-48
2024/02/07 02:03:23;;;;;;;;;;;;;;;17.09;43.39;100415.00;5031698;28;1019;-46
2024/02/07 02:05:48;;;;;;;;;;;;;;;16.88;43.44;100414.28;5031982;28;1218;-45
2024/02/07 02:08:14;;;;;;;;;;;;;;;18.23;41.18;100406.50;5026745;28;1088;-46
2024/02/07 02:10:40;;;;;;;;;;;;;;;17.31;42.62;100417.31;5024057;28;1122;-45
2024/02/07 02:13:06;;;;;;;;;;;;;;;16.89;43.50;100400.28;5042255;28;1121;-47
2024/02/07 02:15:31;;;;;;;;;;;;;;;18.38;40.77;100413.75;5032346;28;1095;-46
2024/02/07 02:17:57;;;;;;;;;;;;;;;17.26;42.82;100420.06;5038124;28;1080;-47
2024/02/07 02:20:23;;;;;;;;;;;;;;;18.06;41.71;100421.56;5023787;28;1123;-45
2024/02/07 02:22:59;;;;;;;;;;;;;;;18.13;41.30;100412.94;5025759;28;2748;-47
2024/02/07 02:25:38;;;;;;;;;;;;;;;17.30;42.59;100412.09;5024127;28;1108;-48
2024/02/07 02:28:24;;;;;;;;;;;;;;;16.87;43.39;100410.72;5026759;28;1027;-46
2024/02/07 02:30:52;;;;;;;;;;;;;;;18.01;41.54;100421.63;5026274;28;1028;-46
2024/02/07 02:33:18;;;;;;;;;;;;;;;17.05;43.61;100420.22;5036656;28;1092;-47
2024/02/07 02:35:47;;;;;;;;;;;;;;;16.76;43.83;100415.44;5029946;28;1127;-47
2024/02/07 02:38:13;;;;;;;;;;;;;;;17.77;42.18;100425.13;5018939;28;1049;-46
2024/02/07 02:40:39;;;;;;;;;;;;;;;17.41;42.58;100427.38;5030934;28;1975;-48
2024/02/07 02:43:05;;;;;;;;;;;;;;;16.93;43.80;100434.31;5036362;28;1059;-45
2024/02/07 02:45:31;;;;;;;;;;;;;;;18.51;40.54;100437.84;5026403;28;1187;-46
2024/02/07 02:47:57;;;;;;;;;;;;;;;17.32;42.80;100429.94;5037559;28;1012;-49
2024/02/07 02:50:26;;;;;;;;;;;;;;;16.90;43.71;100423.91;5037533;28;1004;-45
2024/02/07 02:52:55;;;;;;;;;;;;;;;16.71;43.91;100429.19;5021008;28;2818;-46
2024/02/07 02:55:21;;;;;;;;;;;;;;;16.56;43.82;100432.84;5023854;28;1076;-44
2024/02/07 02:57:47;;;;;;;;;;;;;;;18.04;41.47;100439.47;5024436;28;1114;-48
2024/02/07 03:00:17;;;;;;;;;;;;;;;17.39;42.71;100430.44;5029002;28;1155;-44
2024/02/07 03:02:45;;;;;;;;;;;;;;;16.84;43.68;100440.66;5023444;28;1906;-45
2024/02/07 03:05:37;;;;;;;;;;;;;;;16.64;44.05;100434.19;5029157;28;898;-47
2024/02/07 03:08:15;;;;;;;;;;;;;;;18.19;41.02;100435.72;5037604;28;1492;-47
2024/02/07 03:10:41;;;;;;;;;;;;;;;16.99;43.79;100439.78;5037332;28;1091;-47
2024/02/07 03:13:08;;;;;;;;;;;;;;;16.76;44.03;100444.84;5028359;28;1076;-49
2024/02/07 03:15:34;;;;;;;;;;;;;;;16.60;43.83;100441.34;5028192;28;1032;-45
2024/02/07 03:18:00;;;;;;;;;;;;;;;18.12;41.38;100436.91;5017190;28;1182;-48
2024/02/07 03:20:25;;;;;;;;;;;;;;;17.00;43.64;100438.66;5017237;28;1103;-46
2024/02/07 03:22:51;;;;;;;;;;;;;;;17.22;43.59;100432.75;5017943;28;2811;-45
2024/02/07 03:25:17;;;;;;;;;;;;;;;17.78;41.92;100435.03;5017383;28;1110;-48
2024/02/07 03:27:44;;;;;;;;;;;;;;;17.02;43.78;100440.03;5021692;28;1059;-44
2024/02/07 03:30:10;;;;;;;;;;;;;;;16.74;44.25;100436.84;5036939;28;1040;-47
2024/02/07 03:32:35;;;;;;;;;;;;;;;18.62;40.37;100444.00;5037144;28;1055;-48
2024/02/07 03:35:02;;;;;;;;;;;;;;;17.32;42.98;100446.44;5023591;28;1127;-44
2024/02/07 03:37:28;;;;;;;;;;;;;;;16.88;43.68;100444.50;5036944;28;1106;-45
2024/02/07 03:39:54;;;;;;;;;;;;;;;16.81;44.13;100446.72;5033451;28;1019;-48
2024/02/07 03:42:21;;;;;;;;;;;;;;;18.01;41.42;100440.88;5036622;28;1909;-45
2024/02/07 03:44:54;;;;;;;;;;;;;;;17.13;43.37;100437.22;5035020;28;1047;-44
2024/02/07 03:47:20;;;;;;;;;;;;;;;18.14;41.58;100444.84;5026395;28;1156;-45
2024/02/07 03:49:46;;;;;;;;;;;;;;;17.48;42.69;100449.06;5036386;28;1319;-44
2024/02/07 03:52:12;;;;;;;;;;;;;;;16.95;43.63;100445.03;5032287;28;2831;-48
2024/02/07 03:54:49;;;;;;;;;;;;;;;16.85;43.88;100439.56;5020969;28;1123;-48
2024/02/07 03:57:19;;;;;;;;;;;;;;;17.61;42.68;100440.13;5016899;28;1418;-48
2024/02/07 03:59:47;;;;;;;;;;;;;;;17.30;43.00;100431.34;5029615;28;1059;-44
2024/02/07 04:02:22;;;;;;;;;;;;;;;16.81;44.05;100430.25;5031400;28;1914;-46
2024/02/07 04:04:49;;;;;;;;;;;;;;;16.66;44.10;100432.00;5027262;28;1040;-46
2024/02/07 04:07:18;;;;;;;;;;;;;;;16.93;43.98;100431.56;5036545;28;1016;-46
2024/02/07 04:09:43;;;;;;;;;;;;;;;17.67;42.29;100432.66;5017138;28;1079;-48
2024/02/07 05:17:07;;;;;;;;;;;;;;;18.14;41.42;100453.13;5022561;28;1059;-52
2024/02/07 05:19:36;;;;;;;;;;;;;;;17.71;41.88;100459.31;5027327;28;1124;-54
2024/02/07 05:22:02;;;;;;;;;;;;;;;17.35;42.58;100454.09;5020136;28;2727;-54
2024/02/07 05:24:28;;;;;;;;;;;;;;;17.09;43.35;100456.19;5015601;28;1187;-52
2024/02/07 05:26:54;;;;;;;;;;;;;;;16.94;43.56;100448.88;5015975;28;1112;-49
2024/02/07 05:29:20;;;;;;;;;;;;;;;16.71;44.10;100453.09;5024009;28;1016;-51
2024/02/07 05:31:45;;;;;;;;;;;;;;;16.62;44.56;100455.63;5023304;28;1131;-51
2024/02/07 05:34:11;;;;;;;;;;;;;;;16.48;44.82;100452.66;5021271;28;1043;-48
2024/02/07 05:36:37;;;;;;;;;;;;;;;16.38;45.08;100453.50;5015998;28;1079;-48
2024/02/07 05:39:03;;;;;;;;;;;;;;;16.21;45.10;100440.09;5030137;28;1056;-52
2024/02/07 05:41:28;;;;;;;;;;;;;;;16.14;45.49;100438.78;5024902;28;1901;-50
2024/02/07 05:43:54;;;;;;;;;;;;;;;15.98;45.90;100444.28;5019407;28;1110;-49
2024/02/07 05:46:19;;;;;;;;;;;;;;;15.86;46.05;100444.56;5027464;28;1164;-50
2024/02/07 05:48:45;;;;;;;;;;;;;;;15.82;46.03;100446.25;5024896;28;2210;-51
2024/02/07 05:51:18;;;;;;;;;;;;;;;15.69;46.30;100438.56;5038653;28;1192;-47
2024/02/07 05:53:43;;;;;;;;;;;;;;;15.65;46.51;100443.75;5028896;28;1071;-48
2024/02/07 05:56:09;;;;;;;;;;;;;;;15.64;46.55;100444.03;5032606;28;1107;-46
2024/02/07 05:58:35;;;;;;;;;;;;;;;16.95;43.43;100447.75;5029976;28;1213;-48
2024/02/07 06:01:01;;;;;;;;;;;;;;;17.01;42.96;100446.66;5019404;28;1906;-46
2024/02/07 06:03:26;;;;;;;;;;;;;;;16.35;44.61;100440.31;5019564;28;984;-47
2024/02/07 06:05:53;;;;;;;;;;;;;;;16.03;45.36;100429.75;5023560;28;1194;-45
2024/02/07 06:08:18;;;;;;;;;;;;;;;15.90;45.74;100428.41;5037071;28;1020;-44
2024/02/07 06:10:44;;;;;;;;;;;;;;;15.80;45.75;100439.41;5018946;28;1127;-47
2024/02/07 06:13:10;;;;;;;;;;;;;;;15.69;46.00;100433.88;5033152;28;1131;-45
2024/02/07 06:15:36;;;;;;;;;;;;;;;15.52;46.34;100427.88;5030190;28;1098;-46
2024/02/07 06:18:02;;;;;;;;;;;;;;;16.05;45.20;100428.38;5019794;28;1102;-47
2024/02/07 06:20:28;;;;;;;;;;;;;;;17.42;42.16;100440.84;5030230;28;1194;-45
2024/02/07 06:22:54;;;;;;;;;;;;;;;16.65;43.50;100433.09;5031863;28;1915;-47
2024/02/07 06:25:19;;;;;;;;;;;;;;;16.15;44.81;100432.19;5018718;28;1044;-50
2024/02/07 06:27:45;;;;;;;;;;;;;;;15.88;45.61;100434.16;5033010;28;1127;-47
2024/02/07 06:30:11;;;;;;;;;;;;;;;15.76;46.04;100427.31;5033471;28;860;-47
2024/02/07 06:32:37;;;;;;;;;;;;;;;15.62;46.24;100433.34;5036532;28;1059;-48
2024/02/07 06:35:03;;;;;;;;;;;;;;;15.51;46.47;100434.44;5026541;28;1056;-47
2024/02/07 06:37:28;;;;;;;;;;;;;;;16.41;44.54;100432.91;5022958;28;1038;-48
2024/02/07 06:39:54;;;;;;;;;;;;;;;17.57;41.90;100430.81;5024899;28;1167;-47
2024/02/07 06:42:20;;;;;;;;;;;;;;;16.62;43.89;100430.91;5023452;28;1918;-49
2024/02/07 06:44:45;;;;;;;;;;;;;;;16.13;44.78;100431.63;5032995;28;1092;-46
2024/02/07 06:47:11;;;;;;;;;;;;;;;15.90;45.33;100439.38;5037831;28;1042;-44
2024/02/07 06:49:37;;;;;;;;;;;;;;;15.76;45.80;100435.53;5023865;28;1226;-50
2024/02/07 06:52:02;;;;;;;;;;;;;;;15.58;46.23;100437.72;5038136;28;1051;-47
2024/02/07 06:54:28;;;;;;;;;;;;;;;15.95;45.36;100441.28;5034627;28;1096;-49
2024/02/07 06:56:53;;;;;;;;;;;;;;;17.36;42.21;100435.66;5026233;28;1144;-49
2024/02/07 06:59:19;;;;;;;;;;;;;;;16.85;43.31;100450.56;5024652;28;1218;-44
2024/02/07 07:01:45;;;;;;;;;;;;;;;16.29;44.38;100449.69;5029471;28;1910;-49
2024/02/07 07:04:10;;;;;;;;;;;;;;;16.02;45.06;100450.88;5032405;28;1469;-47
2024/02/07 07:06:36;;;;;;;;;;;;;;;15.85;45.46;100445.69;5026463;28;1127;-47
2024/02/07 07:09:02;;;;;;;;;;;;;;;15.68;45.86;100445.13;5027615;28;1027;-45
2024/02/07 07:11:28;;;;;;;;;;;;;;;15.55;46.07;100443.75;5017799;28;1020;-47
2024/02/07 07:13:54;;;;;;;;;;;;;;;16.32;44.39;100445.56;5017736;28;1143;-44
2024/02/07 07:16:20;;;;;;;;;;;;;;;17.43;42.01;100445.25;5020573;28;1059;-45
2024/02/07 07:18:46;;;;;;;;;;;;;;;16.51;44.03;100437.53;5022162;28;825;-45
2024/02/07 07:21:11;;;;;;;;;;;;;;;16.12;44.88;100435.47;5017645;28;1914;-49
2024/02/07 07:23:37;;;;;;;;;;;;;;;15.94;45.43;100451.44;5017474;28;1120;-48
2024/02/07 07:26:02;;;;;;;;;;;;;;;15.79;45.74;100432.22;5025199;28;1044;-47
2024/02/07 07:28:28;;;;;;;;;;;;;;;15.52;46.11;100439.66;5035882;28;1043;-46
2024/02/07 07:30:55;;;;;;;;;;;;;;;15.71;45.85;100445.41;5024094;28;921;-47
2024/02/07 07:33:21;;;;;;;;;;;;;;;17.22;42.57;100441.00;5030172;28;1159;-47
2024/02/07 07:35:48;;;;;;;;;;;;;;;17.01;42.75;100441.16;5025422;28;1187;-49
2024/02/07 07:38:13;;;;;;;;;;;;;;;16.36;44.08;100439.25;5035223;28;1051;-46
2024/02/07 07:40:40;;;;;;;;;;;;;;;16.00;45.02;100433.84;5017201;28;1091;-48
2024/02/07 07:43:06;;;;;;;;;;;;;;;15.81;45.45;100425.41;5019480;28;1906;-47
2024/02/07 07:45:31;;;;;;;;;;;;;;;15.65;45.74;100421.00;5031629;28;1281;-46
2024/02/07 07:47:57;;;;;;;;;;;;;;;15.56;46.06;100428.97;5023186;28;1175;-46
2024/02/07 07:50:23;;;;;;;;;;;;;;;16.81;43.50;100431.06;5023856;28;1362;-46
2024/02/07 07:52:48;;;;;;;;;;;;;;;17.50;41.52;100424.84;5016973;28;1037;-47
2024/02/07 07:55:15;;;;;;;;;;;;;;;16.51;44.07;100421.06;5032516;28;897;-48
2024/02/07 07:57:40;;;;;;;;;;;;;;;16.10;44.80;100421.22;5017987;28;1157;-49
2024/02/07 08:00:06;;;;;;;;;;;;;;;15.94;45.12;100425.94;5024720;28;1072;-46
2024/02/07 08:02:37;;;;;;;;;;;;;;;15.73;45.63;100418.53;5035778;28;1909;-45
2024/02/07 08:05:03;;;;;;;;;;;;;;;15.58;46.26;100426.75;5036349;28;1015;-45
2024/02/07 08:07:28;;;;;;;;;;;;;;;15.93;45.36;100422.34;5019332;28;837;-45
2024/02/07 08:09:54;;;;;;;;;;;;;;;17.36;42.32;100427.41;5022199;28;1261;-48
2024/02/07 08:12:19;;;;;;;;;;;;;;;17.08;42.43;100427.91;5025523;28;1340;-47
2024/02/07 08:14:46;;;;;;;;;;;;;;;16.48;44.12;100427.13;5036116;28;1088;-50
2024/02/07 08:17:16;;;;;;;;;;;;;;;16.16;44.80;100415.44;5030267;28;1344;-48
2024/02/07 08:19:41;;;;;;;;;;;;;;;15.95;45.19;100414.69;5025889;28;874;-48
2024/02/07 08:22:07;;;;;;;;;;;;;;;15.72;45.82;100416.91;5019398;28;1910;-48
2024/02/07 08:24:32;;;;;;;;;;;;;;;15.68;45.81;100415.81;5026224;28;1055;-47
2024/02/07 08:26:58;;;;;;;;;;;;;;;15.98;45.39;100418.81;5029483;28;1112;-46
2024/02/07 08:29:23;;;;;;;;;;;;;;;17.38;42.29;100422.47;5026273;28;1159;-49
2024/02/07 08:31:48;;;;;;;;;;;;;;;16.90;42.89;100426.66;5030404;28;889;-50
2024/02/07 08:34:14;;;;;;;;;;;;;;;16.38;44.09;100423.31;5026215;28;1017;-46
2024/02/07 08:36:40;;;;;;;;;;;;;;;16.07;44.97;100412.47;5032329;28;1044;-48
2024/02/07 08:39:05;;;;;;;;;;;;;;;15.89;45.50;100413.03;5016736;28;1126;-47
2024/02/07 08:41:31;;;;;;;;;;;;;;;15.72;45.58;100411.41;5018905;28;1906;-46
2024/02/07 08:43:56;;;;;;;;;;;;;;;15.66;45.85;100409.78;5025861;28;1195;-50
2024/02/07 08:46:22;;;;;;;;;;;;;;;16.57;44.00;100417.19;5029526;28;1133;-47
2024/02/07 08:48:48;;;;;;;;;;;;;;;17.61;41.53;100415.38;5032075;28;1223;-49
2024/02/07 08:51:15;;;;;;;;;;;;;;;16.67;43.42;100424.56;5017326;28;1144;-46
2024/02/07 08:53:40;;;;;;;;;;;;;;;16.18;44.98;100413.22;5020558;28;1119;-47
2024/02/07 08:56:06;;;;;;;;;;;;;;;16.02;45.42;100409.72;5033279;28;946;-46
2024/02/07 08:58:32;;;;;;;;;;;;;;;15.80;45.51;100398.28;5015939;28;1116;-51
2024/02/07 09:00:58;;;;;;;;;;;;;;;15.68;46.00;100401.25;5018453;28;1906;-52
2024/02/07 09:03:23;;;;;;;;;;;;;;;15.67;45.99;100400.47;5030083;28;1313;-47
2024/02/07 09:05:49;;;;;;;;;;;;;;;17.05;42.82;100401.00;5029456;28;1115;-47
2024/02/07 09:08:15;;;;;;;;;;;;;;;17.22;42.23;100405.28;5028236;28;1136;-48
2024/02/07 09:10:42;;;;;;;;;;;;;;;16.37;44.10;100399.72;5016632;28;1083;-48
2024/02/07 09:13:08;;;;;;;;;;;;;;;16.07;45.10;100390.53;5017137;28;1155;-46
2024/02/07 09:15:33;;;;;;;;;;;;;;;15.87;45.80;100396.88;5025849;28;1313;-45
2024/02/07 09:17:59;;;;;;;;;;;;;;;15.73;45.82;100391.13;5020911;28;1178;-44
2024/02/07 09:20:25;;;;;;;;;;;;;;;15.78;45.89;100381.22;5027706;28;1329;-49
2024/02/07 09:22:50;;;;;;;;;;;;;;;16.16;45.13;100389.91;5027715;28;1976;-45
2024/02/07 09:25:16;;;;;;;;;;;;;;;17.49;42.12;100380.03;5027718;28;1185;-47
2024/02/07 09:27:41;;;;;;;;;;;;;;;16.90;43.21;100384.63;5025918;28;1360;-50
2024/02/07 09:30:07;;;;;;;;;;;;;;;16.35;44.55;100384.63;5024948;28;985;-49
2024/02/07 09:32:33;;;;;;;;;;;;;;;16.05;45.28;100381.75;5022584;28;2075;-49
2024/02/07 09:34:58;;;;;;;;;;;;;;;15.93;45.72;100380.41;5026861;28;1810;-50
2024/02/07 09:37:24;;;;;;;;;;;;;;;15.80;45.84;100368.94;5026238;28;1789;-50
2024/02/07 09:39:49;;;;;;;;;;;;;;;15.68;45.94;100371.94;5032988;28;2174;-50
2024/02/07 09:42:17;;;;;;;;;;;;;;;16.04;45.50;100371.06;5018870;28;2119;-49
2024/02/07 09:44:45;;;;;;;;;;;;;;;17.43;42.05;100371.03;5027333;28;2088;-50
2024/02/07 09:47:13;;;;;;;;;;;;;;;16.75;43.64;100367.13;5037665;28;1004;-45
2024/02/07 09:49:39;;;;;;;;;;;;;;;16.30;44.56;100366.28;5027738;28;1161;-49
2024/02/07 09:52:05;;;;;;;;;;;;;;;16.04;45.23;100365.56;5019030;28;961;-49
2024/02/07 09:54:30;;;;;;;;;;;;;;;15.92;45.77;100357.63;5025369;28;1140;-48
2024/02/07 09:56:56;;;;;;;;;;;;;;;15.79;46.07;100355.47;5027842;28;1278;-51
2024/02/07 09:59:21;;;;;;;;;;;;;;;15.60;46.54;100342.38;5035989;28;1119;-48
2024/02/07 10:01:47;;;;;;;;;;;;;;;16.92;43.36;100338.47;5020720;28;1999;-50
2024/02/07 10:04:14;;;;;;;;;;;;;;;17.41;42.24;100344.94;5030631;28;1110;-47
2024/02/07 10:06:40;;;;;;;;;;;;;;;16.52;44.34;100340.38;5020257;28;1013;-47
2024/02/07 10:09:07;;;;;;;;;;;;;;;16.19;44.88;100342.75;5024218;28;1183;-49
2024/02/07 10:11:33;;;;;;;;;;;;;;;16.04;45.46;100347.19;5019466;28;993;-48
2024/02/07 10:13:58;;;;;;;;;;;;;;;15.84;45.97;100339.03;5017586;28;1060;-49
2024/02/07 10:16:24;;;;;;;;;;;;;;;15.76;46.18;100334.09;5017518;28;2076;-50
2024/02/07 10:18:50;;;;;;;;;;;;;;;15.58;46.47;100336.31;5025179;28;985;-47
2024/02/07 10:21:15;;;;;;;;;;;;;;;16.91;43.67;100331.34;5029960;28;1977;-49
2024/02/07 10:23:41;;;;;;;;;;;;;;;17.25;42.66;100322.25;5020677;28;1084;-50
2024/02/07 10:26:07;;;;;;;;;;;;;;;16.42;44.49;100325.63;5029210;28;1027;-45
2024/02/07 10:28:32;;;;;;;;;;;;;;;16.16;45.13;100321.34;5020594;28;1235;-50
2024/02/07 10:30:58;;;;;;;;;;;;;;;15.92;45.81;100311.03;5028952;28;1058;-49
2024/02/07 10:33:24;;;;;;;;;;;;;;;15.78;46.28;100312.69;5018282;28;1469;-51
2024/02/07 10:36:00;;;;;;;;;;;;;;;15.67;46.51;100300.94;5026347;28;1101;-48
2024/02/07 10:38:26;;;;;;;;;;;;;;;15.56;46.72;100300.16;5023067;28;1115;-50
2024/02/07 10:40:52;;;;;;;;;;;;;;;16.75;44.19;100303.97;5038491;28;1131;-50
2024/02/07 10:43:23;;;;;;;;;;;;;;;17.53;42.18;100292.31;5019619;28;2025;-46
2024/02/07 10:45:56;;;;;;;;;;;;;;;16.56;44.42;100297.53;5017621;28;1302;-47
2024/02/07 10:48:22;;;;;;;;;;;;;;;16.19;45.14;100285.94;5018413;28;1016;-45
2024/02/07 10:50:48;;;;;;;;;;;;;;;15.90;45.73;100288.56;5030284;28;1057;-47
2024/02/07 10:53:14;;;;;;;;;;;;;;;15.70;46.43;100287.50;5031771;28;1011;-50
2024/02/07 10:55:39;;;;;;;;;;;;;;;15.66;46.41;100291.91;5017906;28;1081;-49
2024/02/07 10:58:05;;;;;;;;;;;;;;;15.88;45.88;100285.28;5017774;28;1175;-43
2024/02/07 11:00:30;;;;;;;;;;;;;;;17.40;42.63;100283.66;5016458;28;1060;-48
2024/02/07 11:02:56;;;;;;;;;;;;;;;16.94;43.33;100281.31;5030912;28;1978;-46
2024/02/07 11:05:22;;;;;;;;;;;;;;;16.37;44.99;100278.19;5018233;28;1140;-45
2024/02/07 11:07:48;;;;;;;;;;;;;;;16.12;45.30;100273.63;5028738;28;1033;-45
2024/02/07 11:10:13;;;;;;;;;;;;;;;15.91;45.72;100271.03;5016301;28;1497;-45
2024/02/07 11:12:39;;;;;;;;;;;;;;;15.81;46.07;100271.03;5031025;28;1131;-48
2024/02/07 11:15:05;;;;;;;;;;;;;;;15.68;46.55;100273.28;5017566;28;1155;-47
2024/02/07 11:17:31;;;;;;;;;;;;;;;15.98;45.97;100268.78;5029548;28;1175;-52
2024/02/07 11:19:56;;;;;;;;;;;;;;;17.40;42.72;100264.41;5017369;28;1126;-50
2024/02/07 11:22:39;;;;;;;;;;;;;;;16.76;43.77;100269.94;5021466;28;1980;-47
2024/02/07 11:25:05;;;;;;;;;;;;;;;16.16;45.40;100256.34;5033796;28;987;-50
2024/02/07 11:27:30;;;;;;;;;;;;;;;15.97;45.69;100258.09;5030582;28;1131;-50
2024/02/07 11:29:56;;;;;;;;;;;;;;;15.85;45.97;100245.56;5017466;28;1113;-48
2024/02/07 11:32:21;;;;;;;;;;;;;;;15.71;46.42;100241.72;5017488;28;1028;-49
2024/02/07 11:34:50;;;;;;;;;;;;;;;15.74;46.36;100246.66;5029029;28;1052;-49
2024/02/07 11:37:18;;;;;;;;;;;;;;;17.21;43.21;100242.34;5023363;28;1084;-47
2024/02/07 11:39:43;;;;;;;;;;;;;;;16.89;43.67;100235.53;5024361;28;1063;-49
2024/02/07 11:42:15;;;;;;;;;;;;;;;16.33;45.12;100228.53;5036355;28;1983;-48
2024/02/07 11:44:52;;;;;;;;;;;;;;;16.05;45.47;100230.91;5036046;28;1031;-49
2024/02/07 11:47:29;;;;;;;;;;;;;;;15.88;46.01;100222.25;5016960;28;1040;-52
2024/02/07 11:49:57;;;;;;;;;;;;;;;15.83;46.41;100211.28;5016462;28;1095;-51
2024/02/07 11:52:29;;;;;;;;;;;;;;;15.64;46.53;100203.69;5023909;28;1181;-49
2024/02/07 11:55:04;;;;;;;;;;;;;;;15.57;46.99;100211.34;5024389;28;1202;-52
2024/02/07 11:57:32;;;;;;;;;;;;;;;16.58;44.50;100210.25;5018195;28;1164;-50
2024/02/07 12:00:01;;;;;;;;;;;;;;;17.36;42.83;100208.41;5022908;28;1048;-49
2024/02/07 12:02:30;;;;;;;;;;;;;;;16.38;44.87;100202.97;5022380;28;1906;-52
2024/02/07 12:04:55;;;;;;;;;;;;;;;16.04;45.81;100196.34;5027946;28;1082;-49
2024/02/07 12:07:21;;;;;;;;;;;;;;;15.89;46.10;100190.94;5015681;28;1039;-49
2024/02/07 12:09:47;;;;;;;;;;;;;;;15.80;46.55;100192.66;5016438;28;1191;-52
2024/02/07 12:12:13;;;;;;;;;;;;;;;15.61;46.71;100189.69;5027510;28;1035;-51
2024/02/07 12:14:39;;;;;;;;;;;;;;;15.98;45.94;100188.44;5031005;28;1151;-48
2024/02/07 12:17:05;;;;;;;;;;;;;;;17.39;42.87;100183.06;5026909;28;1019;-51
2024/02/07 12:19:31;;;;;;;;;;;;;;;16.63;44.44;100187.41;5029701;28;1235;-49
2024/02/07 12:21:57;;;;;;;;;;;;;;;16.17;45.43;100177.63;5015667;28;1987;-47
2024/02/07 12:24:22;;;;;;;;;;;;;;;15.95;45.92;100178.03;5019812;28;1114;-48
2024/02/07 12:26:48;;;;;;;;;;;;;;;15.80;46.33;100168.81;5035417;28;1198;-50
2024/02/07 12:29:19;;;;;;;;;;;;;;;15.71;46.67;100171.28;5021290;28;1114;-48
2024/02/07 12:31:44;;;;;;;;;;;;;;;15.76;46.47;100166.88;5023619;28;1078;-50
2024/02/07 12:34:10;;;;;;;;;;;;;;;17.23;43.19;100157.69;5015339;28;1043;-48
2024/02/07 12:36:36;;;;;;;;;;;;;;;16.86;43.85;100163.88;5015693;28;1128;-47
2024/02/07 12:39:01;;;;;;;;;;;;;;;16.29;45.39;100161.63;5015316;28;1099;-46
2024/02/07 12:41:27;;;;;;;;;;;;;;;16.00;45.88;100165.09;5015395;28;1905;-48
2024/02/07 12:43:54;;;;;;;;;;;;;;;15.88;46.42;100150.94;5025833;28;1068;-50
2024/02/07 12:46:20;;;;;;;;;;;;;;;15.70;46.68;100155.13;5017456;28;1028;-51
2024/02/07 12:48:45;;;;;;;;;;;;;;;15.66;46.70;100152.13;5014670;28;1060;-47
2024/02/07 12:51:11;;;;;;;;;;;;;;;16.72;44.40;100152.75;4979746;28;1392576;-51
2024/02/07 12:53:36;;;;;;;;;;;;;;;17.60;42.47;100141.59;5023461;28;1333;-50
2024/02/07 12:56:02;;;;;;;;;;;;;;;16.65;44.44;100142.09;5024318;28;1360;-49
2024/02/07 12:58:28;;;;;;;;;;;;;;;16.28;45.57;100140.75;5020961;28;1337;-50
2024/02/07 13:01:00;;;;;;;;;;;;;;;15.97;46.32;100130.03;5016826;28;1088;-44
2024/02/07 13:03:26;;;;;;;;;;;;;;;15.82;46.76;100130.13;5022317;28;1913;-47
2024/02/07 13:05:52;;;;;;;;;;;;;;;15.70;47.00;100133.22;5023187;28;1089;-47
2024/02/07 13:08:17;;;;;;;;;;;;;;;15.59;47.12;100126.97;5022153;28;1023;-43
2024/02/07 13:10:45;;;;;;;;;;;;;;;16.60;44.81;100126.47;5028101;28;1179;-44
2024/02/07 13:13:10;;;;;;;;;;;;;;;17.36;42.86;100123.22;5034925;28;1070;-47
2024/02/07 13:15:36;;;;;;;;;;;;;;;16.54;44.84;100118.59;5016265;28;1005;-44
2024/02/07 13:18:02;;;;;;;;;;;;;;;16.13;45.94;100122.53;5029185;28;1103;-45
2024/02/07 13:20:27;;;;;;;;;;;;;;;15.91;46.22;100117.47;5016346;28;1009;-47
2024/02/07 13:22:53;;;;;;;;;;;;;;;15.84;46.55;100117.78;5016198;28;1905;-45
2024/02/07 13:25:21;;;;;;;;;;;;;;;15.57;47.00;100119.03;5023450;28;1255;-45
2024/02/07 13:27:46;;;;;;;;;;;;;;;15.61;46.95;100129.41;5022521;28;1027;-45
2024/02/07 13:30:12;;;;;;;;;;;;;;;16.85;44.27;100130.06;5016144;28;1103;-47
2024/02/07 13:32:38;;;;;;;;;;;;;;;17.35;42.98;100127.06;5035515;28;1163;-46
2024/02/07 13:35:04;;;;;;;;;;;;;;;16.49;44.74;100129.63;5022630;28;1079;-46
2024/02/07 13:37:30;;;;;;;;;;;;;;;16.15;45.61;100133.22;5015997;28;1128;-46
2024/02/07 13:39:55;;;;;;;;;;;;;;;15.94;46.16;100138.84;5021146;28;1211;-43
2024/02/07 13:42:21;;;;;;;;;;;;;;;15.81;46.61;100139.44;5015897;28;1906;-46
2024/02/07 13:44:47;;;;;;;;;;;;;;;15.70;46.93;100128.53;5026206;28;1518;-46
2024/02/07 13:47:12;;;;;;;;;;;;;;;15.89;46.36;100138.84;5016461;28;1040;-44
2024/02/07 13:49:38;;;;;;;;;;;;;;;17.33;43.04;100132.00;5015723;28;1381;-44